Pagrindinis puslapis
METAR-TAF:

METAR-TAF

Oro uostai :

Čengdu, Kinija

platuma: 30-40N, ilguma: 104-01E, Aukštis: 508 m

Dabartinis oras

Ataskaita buvo paskelbta 20 minutes, ne 00:00 UTC
Ramus vėjas
Temperatūra 17°C
Drėgmė 68%
Slėgis 1015 hPa
Matomumas 10 km arba daugiau
Išsisklaidę debesys ne aukštis 5000 ft

METAR: ZUUU 100000Z 00000MPS 9999 SCT050 17/11 Q1015 NOSIG

Laikas: 08:20 (00:20 UTC)

Prognozė

Ataskaita buvo paskelbta 30 minutes, ne 23:50 UTC
Prognozė galioja nuo 10 metu 00 UTC su 10 metu 24 UTC
Vėjas 8 kt iš Šiaurės/Šiaurės Rytų
Matomumas: 5000 m
Išsisklaidę debesys ne aukštis 4000 ft
rūkana
Laikinai
nuo 10 metu 14 UTC su 10 metu 16 UTC
Mažai debesys ne aukštis 3000 ft, Liūtiniai kamuoliniai debesys.
perkūnija, lietus
Laikinai
nuo 10 metu 18 UTC su 10 metu 20 UTC
Mažai debesys ne aukštis 3000 ft, Liūtiniai kamuoliniai debesys.
lietus
Laikinai
nuo 10 metu 20 UTC su 10 metu 23 UTC
lietus

TAF: ZUUU 092350Z 1000/1024 02004MPS 5000 BR SCT040 TX24/1007Z TN15/1023Z TEMPO 1014/1016 -TSRA FEW030CB TEMPO 1018/1020 SHRA FEW030CB TEMPO 1020/1023 -SHRA

Orai ataskaitas ir orų prognozės (METAR, TAF).

turimą stotys yra geltonos ir raudonos taškus žemėlapyje.

Perkelti pele per norėdami pamatyti stoties vardą.

Tada spustelėkite, norėdami matyti oro stebėjimo ir prognozės.

Norėdami pakeisti žemėlapį: spustelėkite ant žalios mygtukų su juodo kryžiaus žemyn,; žalią mygtuką su brūkšneliu, jei norite nutolinti; arba žalių rodyklių gretimoms žemėlapius.


METAR-TAF: